Moline, Kansas
Current Conditions -  °F | °C
As of 12:15 AM on Thursday 23 Oct 2014 (Local Time) from KIDP Reporting Station
Broken Clouds Broken Clouds  
Wind Chill: 63°   Ceiling: 5000
Heat Index: 63°   Visibility: 10mi
Dew Point: 55°   Wind: 7mph
Humidity: 77%   Direction: 200°SSW
Pressure: 30.11"   Gusts: NA
Location:  37.36°N, 96.3°W
Report Text: KIDP 230515Z AUTO 20006KT 10SM BKN050 BKN065 BKN080 17/13 A3011 RMK AO2
Loading
Personal Weather Stations






























Interactive Weather Map New forecast layout! Learn more

10-Day Weather Forecast

Advertisements
Track Severe Weather on mobile